Terminal Aerodrome Forecast
Issued by NWS

Home | Current Version | Previous Version | Text Only | Print | Product List | Glossary On
Versions: 1 2 3 4 5 6 7 8 9 10 11 12 13 14 15 16
000
FTUS42 TJSJ 210200 AAA
TAFJBQ
TAF AMD
TJBQ 210202Z 2102/2124 11010KT P6SM VCSH SCT025 SCT100
      TEMPO 2102/2103 -RA BKN025
     FM211500 08015G24KT P6SM SCT025
     FM212300 09008KT P6SM VCSH SCT025
      AMD NOT SKED TIL 211100=

USA.gov is the U.S. government's official web portal to all federal, state and local government web resources and services.